createdAt,value
2023-03-05T00:02:48.642Z,8.93
2023-03-05T00:05:57.614Z,7.20
2023-03-05T00:09:00.478Z,7.70
2023-03-05T00:12:03.076Z,11.00
2023-03-05T00:15:06.691Z,12.53
2023-03-05T00:18:10.601Z,11.77
2023-03-05T00:21:22.292Z,11.00
2023-03-05T00:24:24.885Z,14.53
2023-03-05T00:27:27.500Z,10.40
2023-03-05T00:30:30.162Z,9.80
2023-03-05T00:33:34.148Z,6.20
2023-03-05T00:36:40.836Z,11.53
2023-03-05T00:39:43.492Z,12.67
2023-03-05T00:42:46.525Z,8.93
2023-03-05T00:45:49.158Z,12.03
2023-03-05T00:48:53.076Z,12.43
2023-03-05T00:51:55.714Z,6.43
2023-03-05T00:54:58.408Z,9.77
2023-03-05T00:58:00.981Z,6.40
2023-03-05T01:01:04.484Z,6.37
2023-03-05T01:04:08.583Z,8.43
2023-03-05T01:07:11.143Z,7.30
2023-03-05T01:10:14.487Z,4.37
2023-03-05T01:13:17.048Z,11.23
2023-03-05T01:16:19.665Z,7.13
2023-03-05T01:19:23.629Z,6.63
2023-03-05T01:22:26.183Z,9.93
2023-03-05T01:25:28.901Z,6.23
2023-03-05T01:28:32.408Z,6.87
2023-03-05T01:31:35.053Z,8.80
2023-03-05T01:34:39.215Z,10.57
2023-03-05T01:37:41.786Z,8.37
2023-03-05T01:40:44.848Z,7.43
2023-03-05T01:43:48.517Z,6.30
2023-03-05T01:46:51.136Z,10.30
2023-03-05T01:49:55.287Z,7.27
2023-03-05T01:53:00.249Z,8.83
2023-03-05T01:56:03.329Z,12.17
2023-03-05T01:59:05.972Z,7.13
2023-03-05T02:02:08.992Z,9.00
2023-03-05T02:05:17.105Z,16.23
2023-03-05T02:08:22.904Z,10.50
2023-03-05T02:11:25.552Z,8.93
2023-03-05T02:14:28.967Z,5.87
2023-03-05T02:17:31.637Z,14.07
2023-03-05T02:20:46.760Z,15.63
2023-03-05T02:23:50.673Z,6.93
2023-03-05T02:26:53.259Z,8.93
2023-03-05T02:29:55.890Z,9.87
2023-03-05T02:32:58.875Z,10.80
2023-03-05T02:36:01.460Z,8.83
2023-03-05T02:39:05.661Z,7.53
2023-03-05T02:42:08.366Z,10.93
2023-03-05T02:45:12.155Z,11.17
2023-03-05T02:48:14.769Z,5.90
2023-03-05T02:51:18.011Z,7.33
2023-03-05T02:54:22.732Z,8.37
2023-03-05T02:57:25.454Z,14.83
2023-03-05T03:00:28.346Z,5.77
2023-03-05T03:03:31.389Z,8.60
2023-03-05T03:06:34.066Z,8.00
2023-03-05T03:09:38.168Z,6.83
2023-03-05T03:12:42.155Z,6.17
2023-03-05T03:15:45.061Z,9.27
2023-03-05T03:18:48.766Z,8.97
2023-03-05T03:21:51.533Z,8.87
2023-03-05T03:24:55.486Z,10.60
2023-03-05T03:27:58.053Z,5.70
2023-03-05T03:31:00.644Z,9.63
2023-03-05T03:34:03.256Z,7.87
2023-03-05T03:37:06.264Z,7.63
2023-03-05T03:40:12.729Z,7.37
2023-03-05T03:43:15.330Z,12.17
2023-03-05T03:46:17.925Z,9.10
2023-03-05T03:49:22.852Z,3.80
2023-03-05T03:52:26.308Z,8.67
2023-03-05T03:55:30.281Z,5.50
2023-03-05T03:58:33.194Z,8.10
2023-03-05T04:01:35.793Z,5.93
2023-03-05T04:04:38.487Z,6.07
2023-03-05T04:07:41.096Z,7.60
2023-03-05T04:10:45.380Z,11.27
2023-03-05T04:13:48.426Z,6.07
2023-03-05T04:16:51.059Z,5.10
2023-03-05T04:19:53.663Z,9.13
2023-03-05T04:22:56.361Z,7.07
2023-03-05T04:26:00.540Z,6.63
2023-03-05T04:29:03.128Z,5.40
2023-03-05T04:32:06.159Z,7.37
2023-03-05T04:35:09.354Z,7.63
2023-03-05T04:38:12.174Z,9.30
2023-03-05T04:41:16.127Z,6.23
2023-03-05T04:44:19.155Z,6.20
2023-03-05T04:47:21.916Z,5.47
2023-03-05T04:50:24.587Z,6.37
2023-03-05T04:53:27.274Z,8.77
2023-03-05T04:56:31.261Z,7.60
2023-03-05T04:59:33.984Z,6.67
2023-03-05T05:02:36.559Z,8.33
2023-03-05T05:05:39.222Z,12.13
2023-03-05T05:08:41.802Z,6.90
2023-03-05T05:11:45.707Z,6.10
2023-03-05T05:14:48.286Z,6.90
2023-03-05T05:17:51.042Z,4.33
2023-03-05T05:20:53.869Z,7.33
2023-03-05T05:23:56.450Z,11.60
2023-03-05T05:27:00.379Z,6.13
2023-03-05T05:30:04.036Z,8.60
2023-03-05T05:33:06.620Z,6.00
2023-03-05T05:36:11.961Z,5.73
2023-03-05T05:39:14.776Z,9.37
2023-03-05T05:42:19.020Z,9.93
2023-03-05T05:45:21.646Z,8.90
2023-03-05T05:48:24.560Z,12.53
2023-03-05T05:51:27.155Z,9.23
2023-03-05T05:54:29.847Z,10.93
2023-03-05T05:57:34.790Z,13.10
2023-03-05T06:00:37.401Z,9.27
2023-03-05T06:03:39.998Z,14.80
2023-03-05T06:06:42.712Z,20.70
2023-03-05T06:09:45.690Z,8.83
2023-03-05T06:12:49.643Z,10.33
2023-03-05T06:15:58.648Z,10.17
2023-03-05T06:19:04.473Z,14.53
2023-03-05T06:22:07.286Z,11.77
2023-03-05T06:25:12.968Z,18.65
2023-03-05T06:28:16.964Z,19.60
2023-03-05T06:31:22.278Z,13.47
2023-03-05T06:34:24.916Z,18.87
2023-03-05T06:37:27.494Z,9.20
2023-03-05T06:40:30.186Z,8.40
2023-03-05T06:43:35.475Z,7.03
2023-03-05T06:46:39.151Z,6.97
2023-03-05T06:49:41.781Z,7.87
2023-03-05T06:52:44.385Z,7.10
2023-03-05T06:55:47.393Z,4.60
2023-03-05T06:58:52.921Z,9.93
2023-03-05T07:01:55.527Z,9.40
2023-03-05T07:04:58.097Z,8.87
2023-03-05T07:08:00.676Z,9.93
2023-03-05T07:11:03.476Z,9.30
2023-03-05T07:14:07.633Z,6.27
2023-03-05T07:17:10.248Z,5.30
2023-03-05T07:20:13.530Z,6.47
2023-03-05T07:23:16.164Z,4.00
2023-03-05T07:26:18.752Z,5.17
2023-03-05T07:29:23.507Z,6.67
2023-03-05T07:32:26.111Z,4.07
2023-03-05T07:35:28.784Z,3.83
2023-03-05T07:38:31.663Z,6.57
2023-03-05T07:41:34.578Z,5.47
2023-03-05T07:44:38.929Z,7.73
2023-03-05T07:47:41.616Z,3.30
2023-03-05T07:50:44.270Z,8.07
2023-03-05T07:53:48.330Z,7.20
2023-03-05T07:56:50.950Z,7.00
2023-03-05T07:59:54.902Z,12.30
2023-03-05T08:02:57.478Z,7.43
2023-03-05T08:06:00.112Z,12.17
2023-03-05T08:09:02.725Z,10.23
2023-03-05T08:12:05.548Z,7.27
2023-03-05T08:15:10.559Z,7.90
2023-03-05T08:18:13.739Z,10.30
2023-03-05T08:21:20.996Z,10.23
2023-03-05T08:24:29.279Z,9.47
2023-03-05T08:27:32.235Z,4.97
2023-03-05T08:30:36.208Z,5.47
2023-03-05T08:33:39.618Z,4.63
2023-03-05T08:36:42.377Z,4.90
2023-03-05T08:39:44.971Z,5.53
2023-03-05T08:42:47.617Z,2.73
2023-03-05T08:45:53.459Z,4.30
2023-03-05T08:48:56.417Z,5.83
2023-03-05T08:51:58.975Z,8.87
2023-03-05T08:55:01.768Z,7.00
2023-03-05T08:58:04.417Z,3.93
2023-03-05T09:01:08.399Z,6.97
2023-03-05T09:04:11.018Z,7.43
2023-03-05T09:07:13.984Z,8.13
2023-03-05T09:10:18.274Z,8.83
2023-03-05T09:13:21.069Z,7.40
2023-03-05T09:16:25.011Z,5.53
2023-03-05T09:19:28.207Z,4.87
2023-03-05T09:22:30.936Z,3.17
2023-03-05T09:25:33.528Z,9.03
2023-03-05T09:28:36.374Z,5.93
2023-03-05T09:31:40.375Z,6.17
2023-03-05T09:34:43.025Z,7.23
2023-03-05T09:37:45.610Z,8.13
2023-03-05T09:40:56.168Z,6.33
2023-03-05T09:44:06.135Z,10.20
2023-03-05T09:47:23.822Z,5.90
2023-03-05T09:50:39.029Z,8.97
2023-03-05T09:53:47.512Z,8.30
2023-03-05T09:56:56.522Z,10.33
2023-03-05T10:00:02.474Z,5.40
2023-03-05T10:03:13.944Z,7.67
2023-03-05T10:06:21.253Z,6.60
2023-03-05T10:09:32.902Z,4.33
2023-03-05T10:12:42.410Z,6.73
2023-03-05T10:15:53.492Z,6.30
2023-03-05T10:19:05.750Z,7.53
2023-03-05T10:22:17.683Z,4.23
2023-03-05T10:25:27.351Z,9.43
2023-03-05T10:28:41.366Z,5.17
2023-03-05T10:31:57.131Z,6.43
2023-03-05T10:35:24.390Z,5.77
2023-03-05T10:39:00.022Z,4.33
2023-03-05T10:42:12.142Z,8.13
2023-03-05T10:45:17.933Z,4.23
2023-03-05T10:48:29.781Z,14.40
2023-03-05T10:51:38.120Z,5.03
2023-03-05T10:54:42.771Z,5.70
2023-03-05T10:57:45.761Z,6.97
2023-03-05T11:01:07.238Z,4.97
2023-03-05T11:04:27.871Z,4.60
2023-03-05T11:07:38.811Z,7.50
2023-03-05T11:10:41.438Z,6.70
2023-03-05T11:13:53.682Z,21.50
2023-03-05T11:16:56.540Z,16.93
2023-03-05T11:20:19.612Z,18.50
2023-03-05T11:23:25.317Z,7.63
2023-03-05T11:26:27.905Z,7.07
2023-03-05T11:29:32.109Z,4.57
2023-03-05T11:32:34.719Z,7.07
2023-03-05T11:35:39.330Z,6.23
2023-03-05T11:38:53.415Z,4.40
2023-03-05T11:42:00.270Z,6.13
2023-03-05T11:45:05.260Z,2.70
2023-03-05T11:48:13.152Z,5.27
2023-03-05T11:51:21.281Z,6.40
2023-03-05T11:54:31.548Z,5.97
2023-03-05T11:57:40.521Z,3.67
2023-03-05T12:00:45.909Z,3.17
2023-03-05T12:03:49.777Z,2.03
2023-03-05T12:06:55.174Z,1.67
2023-03-05T12:09:59.388Z,1.67
2023-03-05T12:13:12.664Z,1.63
2023-03-05T12:16:24.316Z,1.60
2023-03-05T12:19:40.456Z,1.20
2023-03-05T12:22:44.602Z,2.90
2023-03-05T12:25:50.792Z,2.10
2023-03-05T12:28:57.440Z,3.80
2023-03-05T12:32:01.453Z,4.03
2023-03-05T12:35:05.199Z,3.60
2023-03-05T12:38:31.117Z,5.57
2023-03-05T12:41:37.466Z,4.33
2023-03-05T12:44:40.250Z,4.47
2023-03-05T12:47:43.901Z,4.77
2023-03-05T12:50:58.590Z,4.90
2023-03-05T12:54:23.456Z,5.60
2023-03-05T12:57:29.485Z,3.47
2023-03-05T13:00:41.463Z,5.87
2023-03-05T13:03:48.235Z,4.07
2023-03-05T13:07:00.604Z,5.93
2023-03-05T13:10:03.246Z,15.67
2023-03-05T13:13:07.570Z,4.43
2023-03-05T13:16:18.589Z,3.57
2023-03-05T13:19:21.928Z,5.43
2023-03-05T13:22:25.536Z,27.23
2023-03-05T13:25:28.508Z,88.57
2023-03-05T13:28:33.774Z,12.90
2023-03-05T13:31:37.605Z,2.30
2023-03-05T13:34:48.166Z,4.73
2023-03-05T13:37:51.028Z,4.40
2023-03-05T13:41:21.832Z,8.53
2023-03-05T13:44:25.796Z,4.63
2023-03-05T13:47:31.624Z,2.57
2023-03-05T13:50:36.185Z,31.90
2023-03-05T13:53:38.809Z,5.50
2023-03-05T13:56:54.146Z,6.20
2023-03-05T13:59:58.129Z,4.83
2023-03-05T14:03:03.162Z,2.40
2023-03-05T14:06:09.939Z,3.20
2023-03-05T14:09:21.344Z,4.70
2023-03-05T14:12:28.112Z,4.93
2023-03-05T14:15:34.119Z,3.53
2023-03-05T14:18:37.906Z,4.30
2023-03-05T14:21:45.899Z,6.80
2023-03-05T14:24:53.000Z,43.67
2023-03-05T14:27:55.671Z,25.40
2023-03-05T14:30:59.663Z,3.87
2023-03-05T14:34:05.549Z,4.30
2023-03-05T14:37:20.093Z,3.63
2023-03-05T14:40:27.176Z,7.00
2023-03-05T14:43:29.739Z,4.27
2023-03-05T14:46:33.759Z,4.13
2023-03-05T14:49:36.439Z,3.93
2023-03-05T14:52:39.088Z,5.03
2023-03-05T14:55:43.682Z,5.40
2023-03-05T14:58:46.361Z,6.17
2023-03-05T15:01:51.330Z,4.37
2023-03-05T15:04:54.074Z,5.47
2023-03-05T15:07:56.889Z,5.33
2023-03-05T15:11:00.962Z,3.93
2023-03-05T15:14:03.535Z,3.07
2023-03-05T15:17:07.503Z,5.73
2023-03-05T15:20:15.656Z,3.90
2023-03-05T15:23:18.389Z,4.97
2023-03-05T15:26:21.706Z,7.53
2023-03-05T15:29:24.288Z,4.10
2023-03-05T15:32:29.090Z,4.37
2023-03-05T15:35:31.934Z,5.80
2023-03-05T15:38:34.572Z,5.63
2023-03-05T15:41:37.180Z,4.93
2023-03-05T15:44:40.247Z,5.20
2023-03-05T15:47:44.205Z,5.30
2023-03-05T15:50:46.826Z,3.47
2023-03-05T15:53:49.430Z,4.37
2023-03-05T15:56:53.009Z,4.87
2023-03-05T15:59:55.902Z,3.83
2023-03-05T16:02:59.926Z,4.07
2023-03-05T16:06:04.965Z,5.60
2023-03-05T16:09:07.682Z,5.67
2023-03-05T16:12:13.547Z,6.40
2023-03-05T16:15:18.257Z,6.87
2023-03-05T16:18:24.204Z,8.47
2023-03-05T16:21:26.878Z,3.97
2023-03-05T16:24:29.467Z,6.43
2023-03-05T16:27:32.189Z,7.57
2023-03-05T16:30:34.754Z,6.03
2023-03-05T16:33:38.696Z,6.67
2023-03-05T16:36:42.365Z,3.97
2023-03-05T16:39:45.085Z,5.03
2023-03-05T16:42:47.670Z,5.90
2023-03-05T16:45:50.250Z,4.27
2023-03-05T16:48:54.646Z,7.30
2023-03-05T16:51:59.397Z,10.37
2023-03-05T16:55:04.384Z,10.27
2023-03-05T16:58:07.114Z,10.07
2023-03-05T17:01:11.195Z,10.83
2023-03-05T17:04:15.302Z,29.73
2023-03-05T17:07:18.169Z,6.67
2023-03-05T17:10:20.775Z,5.20
2023-03-05T17:13:23.343Z,10.33
2023-03-05T17:16:26.071Z,7.27
2023-03-05T17:19:30.048Z,3.50
2023-03-05T17:22:32.667Z,10.77
2023-03-05T17:25:35.246Z,7.93
2023-03-05T17:28:37.849Z,4.07
2023-03-05T17:31:40.710Z,5.03
2023-03-05T17:34:44.703Z,9.33
2023-03-05T17:37:47.384Z,5.10
2023-03-05T17:40:49.997Z,9.40
2023-03-05T17:43:52.592Z,8.07
2023-03-05T17:46:55.177Z,5.97
2023-03-05T17:49:59.390Z,10.47
2023-03-05T17:53:02.036Z,12.93
2023-03-05T17:56:07.776Z,4.13
2023-03-05T17:59:10.506Z,3.30
2023-03-05T18:02:13.789Z,6.63
2023-03-05T18:05:18.291Z,6.83
2023-03-05T18:08:20.951Z,12.10
2023-03-05T18:11:23.677Z,8.87
2023-03-05T18:14:26.682Z,10.97
2023-03-05T18:17:29.412Z,5.00
2023-03-05T18:20:37.068Z,5.50
2023-03-05T18:23:39.711Z,6.67
2023-03-05T18:26:42.434Z,7.07
2023-03-05T18:29:44.990Z,13.90
2023-03-05T18:32:47.577Z,14.90
2023-03-05T18:35:52.871Z,17.47
2023-03-05T18:38:57.687Z,6.77
2023-03-05T18:42:00.468Z,10.37
2023-03-05T18:45:03.566Z,14.97
2023-03-05T18:48:06.300Z,22.77
2023-03-05T18:51:14.981Z,10.73
2023-03-05T18:54:17.567Z,10.90
2023-03-05T18:57:20.149Z,10.03
2023-03-05T19:00:26.600Z,20.20
2023-03-05T19:03:29.237Z,12.60
2023-03-05T19:06:34.889Z,8.20
2023-03-05T19:09:52.076Z,6.83
2023-03-05T19:13:05.256Z,10.60
2023-03-05T19:16:12.951Z,5.90
2023-03-05T19:19:16.543Z,12.87
2023-03-05T19:22:21.365Z,9.80
2023-03-05T19:25:24.146Z,8.30
2023-03-05T19:28:27.639Z,7.37
2023-03-05T19:31:30.397Z,7.83
2023-03-05T19:34:33.834Z,7.57
2023-03-05T19:37:37.770Z,12.83
2023-03-05T19:40:41.767Z,16.80
2023-03-05T19:43:45.031Z,18.17
2023-03-05T19:46:48.527Z,20.23
2023-03-05T19:49:51.123Z,23.80
2023-03-05T19:52:55.108Z,27.00
2023-03-05T19:55:57.679Z,22.70
2023-03-05T19:59:00.243Z,19.97
2023-03-05T20:02:03.109Z,15.13
2023-03-05T20:05:06.378Z,16.40
2023-03-05T20:08:10.330Z,19.17
2023-03-05T20:11:15.365Z,21.03
2023-03-05T20:14:18.175Z,23.90
2023-03-05T20:17:20.787Z,21.33
2023-03-05T20:20:23.658Z,23.97
2023-03-05T20:23:28.743Z,25.43
2023-03-05T20:26:33.613Z,35.17
2023-03-05T20:29:36.198Z,28.70
2023-03-05T20:32:38.846Z,27.00
2023-03-05T20:35:41.476Z,27.40
2023-03-05T20:38:45.749Z,24.70
2023-03-05T20:41:49.219Z,25.77
2023-03-05T20:44:52.113Z,24.00
2023-03-05T20:47:54.839Z,26.10
2023-03-05T20:50:58.038Z,25.87
2023-03-05T20:54:03.985Z,23.97
2023-03-05T20:57:06.678Z,22.93
2023-03-05T21:00:10.705Z,25.27
2023-03-05T21:03:13.330Z,32.90
2023-03-05T21:06:15.977Z,26.47
2023-03-05T21:09:19.921Z,23.97
2023-03-05T21:12:22.480Z,29.83
2023-03-05T21:15:27.727Z,21.10
2023-03-05T21:18:31.078Z,22.07
2023-03-05T21:21:33.794Z,21.57
2023-03-05T21:24:52.153Z,27.00
2023-03-05T21:27:57.290Z,25.93
2023-03-05T21:31:06.152Z,27.50
2023-03-05T21:34:08.753Z,25.53
2023-03-05T21:37:11.522Z,26.60
2023-03-05T21:40:17.632Z,25.63
2023-03-05T21:43:22.407Z,24.77
2023-03-05T21:46:25.035Z,25.97
2023-03-05T21:49:27.649Z,25.27
2023-03-05T21:52:30.237Z,27.63
2023-03-05T21:55:43.083Z,28.37
2023-03-05T21:58:45.810Z,28.27
2023-03-05T22:01:48.455Z,24.43
2023-03-05T22:04:51.312Z,25.23
2023-03-05T22:07:53.945Z,26.70
2023-03-05T22:10:57.992Z,23.97
2023-03-05T22:14:00.598Z,27.73
2023-03-05T22:17:03.347Z,26.53
2023-03-05T22:20:06.737Z,26.77
2023-03-05T22:23:09.356Z,31.47
2023-03-05T22:26:13.389Z,28.43
2023-03-05T22:29:17.329Z,30.37
2023-03-05T22:32:19.982Z,29.27
2023-03-05T22:35:22.695Z,29.17
2023-03-05T22:38:26.199Z,27.37
2023-03-05T22:41:30.131Z,33.13
2023-03-05T22:44:32.752Z,28.43
2023-03-05T22:47:35.770Z,28.17
2023-03-05T22:50:38.426Z,25.57
2023-03-05T22:53:41.359Z,21.57
2023-03-05T22:56:45.296Z,23.50
2023-03-05T22:59:49.627Z,19.40
2023-03-05T23:02:52.584Z,20.43
2023-03-05T23:05:55.315Z,20.20
2023-03-05T23:08:57.966Z,19.30
2023-03-05T23:12:01.900Z,19.03
2023-03-05T23:15:06.914Z,18.57
2023-03-05T23:18:09.590Z,18.07
2023-03-05T23:21:12.247Z,15.93
2023-03-05T23:24:14.826Z,17.13
2023-03-05T23:27:19.748Z,16.70
2023-03-05T23:30:23.403Z,19.70
2023-03-05T23:33:26.125Z,19.33
2023-03-05T23:36:28.696Z,19.80
2023-03-05T23:39:31.471Z,20.20
2023-03-05T23:42:35.409Z,20.33
2023-03-05T23:45:38.720Z,19.20
2023-03-05T23:48:41.593Z,20.87
2023-03-05T23:51:44.184Z,21.53
2023-03-05T23:54:46.768Z,20.20
2023-03-05T23:57:50.864Z,20.37
